Terminal Aerodrome Forecast
Issued by NWS

Home | Current Version | Previous Version | Text Only | Print | Product List | Glossary On
Versions: 1 2 3 4 5 6 7 8 9 10 11 12
000
FTUS42 TJSJ 211100
TAFISX
TAF
TISX 211137Z 2112/2212 04006KT P6SM FEW025
     FM211230 09012KT P6SM FEW025
     FM212130 06010KT P6SM FEW030=

USA.gov is the U.S. government's official web portal to all federal, state and local government web resources and services.